createdAt,value
2017-11-05T00:00:24.181Z,998.27
2017-11-05T00:00:50.310Z,998.27
2017-11-05T00:01:16.429Z,998.22
2017-11-05T00:01:42.553Z,998.25
2017-11-05T00:02:08.678Z,998.25
2017-11-05T00:02:34.797Z,998.29
2017-11-05T00:03:00.950Z,998.26
2017-11-05T00:03:27.065Z,998.25
2017-11-05T00:03:53.186Z,998.26
2017-11-05T00:04:19.314Z,998.26
2017-11-05T00:04:45.431Z,998.24
2017-11-05T00:05:11.587Z,998.25
2017-11-05T00:05:37.701Z,998.3
2017-11-05T00:06:03.836Z,998.25
2017-11-05T00:06:29.950Z,998.3
2017-11-05T00:06:56.072Z,998.25
2017-11-05T00:07:22.196Z,998.24
2017-11-05T00:07:48.315Z,998.22
2017-11-05T00:08:14.444Z,998.25
2017-11-05T00:08:40.562Z,998.25
2017-11-05T00:09:06.684Z,998.24
2017-11-05T00:09:32.813Z,998.23
2017-11-05T00:09:58.952Z,998.24
2017-11-05T00:10:25.078Z,998.26
2017-11-05T00:10:51.194Z,998.25
2017-11-05T00:11:17.322Z,998.29
2017-11-05T00:11:43.442Z,998.25
2017-11-05T00:12:09.570Z,998.25
2017-11-05T00:12:35.713Z,998.24
2017-11-05T00:13:01.833Z,998.27
2017-11-05T00:13:27.966Z,998.25
2017-11-05T00:13:54.109Z,998.27
2017-11-05T00:14:20.225Z,998.24
2017-11-05T00:14:46.359Z,998.2
2017-11-05T00:15:12.474Z,998.27
2017-11-05T00:15:38.598Z,998.26
2017-11-05T00:16:04.725Z,998.28
2017-11-05T00:16:30.843Z,998.28
2017-11-05T00:16:56.992Z,998.33
2017-11-05T00:17:23.118Z,998.34
2017-11-05T00:17:49.238Z,998.28
2017-11-05T00:18:15.359Z,998.3
2017-11-05T00:18:41.501Z,998.31
2017-11-05T00:19:07.621Z,998.3
2017-11-05T00:19:33.750Z,998.33
2017-11-05T00:19:59.867Z,998.27
2017-11-05T00:20:25.988Z,998.27
2017-11-05T00:20:52.107Z,998.3
2017-11-05T00:21:18.229Z,998.27
2017-11-05T00:21:44.356Z,998.3
2017-11-05T00:22:10.485Z,998.27
2017-11-05T00:22:36.611Z,998.31
2017-11-05T00:23:02.737Z,998.31
2017-11-05T00:23:28.851Z,998.27
2017-11-05T00:23:54.973Z,998.28
2017-11-05T00:24:21.102Z,998.27
2017-11-05T00:24:47.217Z,998.27
2017-11-05T00:25:13.346Z,998.25
2017-11-05T00:25:39.465Z,998.26
2017-11-05T00:26:05.591Z,998.24
2017-11-05T00:26:31.715Z,998.24
2017-11-05T00:26:57.834Z,998.24
2017-11-05T00:27:23.961Z,998.26
2017-11-05T00:27:50.082Z,998.25
2017-11-05T00:28:16.227Z,998.24
2017-11-05T00:28:42.353Z,998.27
2017-11-05T00:29:08.471Z,998.25
2017-11-05T00:29:34.603Z,998.26
2017-11-05T00:30:00.726Z,998.3
2017-11-05T00:30:26.845Z,998.24
2017-11-05T00:30:52.973Z,998.28
2017-11-05T00:31:19.093Z,998.26
2017-11-05T00:31:45.215Z,998.29
2017-11-05T00:32:11.335Z,998.28
2017-11-05T00:32:37.456Z,998.27
2017-11-05T00:33:03.582Z,998.26
2017-11-05T00:33:29.706Z,998.23
2017-11-05T00:33:55.825Z,998.25
2017-11-05T00:34:21.953Z,998.25
2017-11-05T00:34:48.074Z,998.24
2017-11-05T00:35:14.191Z,998.25
2017-11-05T00:35:40.319Z,998.24
2017-11-05T00:36:06.441Z,998.2
2017-11-05T00:36:32.554Z,998.22
2017-11-05T00:36:58.687Z,998.25
2017-11-05T00:37:24.813Z,998.23
2017-11-05T00:37:50.939Z,998.22
2017-11-05T00:38:17.060Z,998.22
2017-11-05T00:38:43.177Z,998.19
2017-11-05T00:39:09.315Z,998.19
2017-11-05T00:39:35.435Z,998.23
2017-11-05T00:40:01.565Z,998.19
2017-11-05T00:40:27.686Z,998.2
2017-11-05T00:40:53.829Z,998.18
2017-11-05T00:41:19.953Z,998.2
2017-11-05T00:41:46.069Z,998.21
2017-11-05T00:42:12.200Z,998.2
2017-11-05T00:42:38.318Z,998.2
2017-11-05T00:43:04.456Z,998.19
2017-11-05T00:43:30.576Z,998.19
2017-11-05T00:43:56.696Z,998.22
2017-11-05T00:44:22.827Z,998.21
2017-11-05T00:44:48.948Z,998.19
2017-11-05T00:45:15.076Z,998.21
2017-11-05T00:45:41.215Z,998.23
2017-11-05T00:46:07.347Z,998.24
2017-11-05T00:46:33.469Z,998.26
2017-11-05T00:46:59.590Z,998.21
2017-11-05T00:47:25.730Z,998.24
2017-11-05T00:47:51.858Z,998.26
2017-11-05T00:48:17.983Z,998.21
2017-11-05T00:48:44.105Z,998.21
2017-11-05T00:49:10.229Z,998.25
2017-11-05T00:49:36.346Z,998.21
2017-11-05T00:50:02.477Z,998.21
2017-11-05T00:50:28.594Z,998.22
2017-11-05T00:50:54.721Z,998.22
2017-11-05T00:51:20.849Z,998.22
2017-11-05T00:51:46.966Z,998.22
2017-11-05T00:52:13.089Z,998.21
2017-11-05T00:52:39.211Z,998.23
2017-11-05T00:53:05.328Z,998.26
2017-11-05T00:53:31.451Z,998.22
2017-11-05T00:53:57.578Z,998.25
2017-11-05T00:54:23.693Z,998.24
2017-11-05T00:54:49.818Z,998.3
2017-11-05T00:55:15.945Z,998.24
2017-11-05T00:55:42.063Z,998.3
2017-11-05T00:56:08.193Z,998.28
2017-11-05T00:56:34.312Z,998.3
2017-11-05T00:57:00.429Z,998.28
2017-11-05T00:57:26.560Z,998.27
2017-11-05T00:57:52.674Z,998.29
2017-11-05T00:58:18.807Z,998.28
2017-11-05T00:58:44.933Z,998.29
2017-11-05T00:59:11.060Z,998.28
2017-11-05T00:59:37.178Z,998.24
2017-11-05T01:00:03.302Z,998.28
2017-11-05T01:00:29.429Z,998.27
2017-11-05T01:00:55.545Z,998.29
2017-11-05T01:01:21.667Z,998.3
2017-11-05T01:01:47.794Z,998.27
2017-11-05T01:02:13.921Z,998.26
2017-11-05T01:02:40.032Z,998.3
2017-11-05T01:03:06.154Z,998.33
2017-11-05T01:03:32.282Z,998.29
2017-11-05T01:03:58.398Z,998.26
2017-11-05T01:04:24.528Z,998.27
2017-11-05T01:04:50.672Z,998.29
2017-11-05T01:05:16.799Z,998.28
2017-11-05T01:05:42.916Z,998.28
2017-11-05T01:06:09.052Z,998.27
2017-11-05T01:06:35.175Z,998.27
2017-11-05T01:07:01.299Z,998.31
2017-11-05T01:07:27.423Z,998.31
2017-11-05T01:07:53.542Z,998.33
2017-11-05T01:08:19.672Z,998.3
2017-11-05T01:08:45.795Z,998.3
2017-11-05T01:09:11.916Z,998.26
2017-11-05T01:09:38.041Z,998.3
2017-11-05T01:10:04.167Z,998.34
2017-11-05T01:10:30.287Z,998.29
2017-11-05T01:10:56.408Z,998.3
2017-11-05T01:11:22.536Z,998.33
2017-11-05T01:11:48.655Z,998.32
2017-11-05T01:12:14.779Z,998.29
2017-11-05T01:12:40.901Z,998.3
2017-11-05T01:13:07.030Z,998.32
2017-11-05T01:13:33.146Z,998.33
2017-11-05T01:13:59.275Z,998.3
2017-11-05T01:14:25.401Z,998.35
2017-11-05T01:14:51.518Z,998.33
2017-11-05T01:15:17.646Z,998.3
2017-11-05T01:15:43.763Z,998.3
2017-11-05T01:16:09.884Z,998.31
2017-11-05T01:16:36.011Z,998.29
2017-11-05T01:17:02.129Z,998.32
2017-11-05T01:17:28.257Z,998.28
2017-11-05T01:17:54.379Z,998.33
2017-11-05T01:18:20.501Z,998.29
2017-11-05T01:18:46.620Z,998.31
2017-11-05T01:19:12.743Z,998.32
2017-11-05T01:19:38.874Z,998.35
2017-11-05T01:20:04.992Z,998.3
2017-11-05T01:20:31.119Z,998.3
2017-11-05T01:20:57.237Z,998.3
2017-11-05T01:21:23.355Z,998.31
2017-11-05T01:21:49.477Z,998.29
2017-11-05T01:22:15.600Z,998.31
2017-11-05T01:22:41.732Z,998.3
2017-11-05T01:23:07.856Z,998.29
2017-11-05T01:23:33.978Z,998.29
2017-11-05T01:24:00.106Z,998.32
2017-11-05T01:24:26.224Z,998.33
2017-11-05T01:24:52.346Z,998.3
2017-11-05T01:25:18.473Z,998.34
2017-11-05T01:25:44.596Z,998.31
2017-11-05T01:26:10.716Z,998.34
2017-11-05T01:26:36.844Z,998.34
2017-11-05T01:27:02.969Z,998.33
2017-11-05T01:27:29.089Z,998.37
2017-11-05T01:27:55.216Z,998.34
2017-11-05T01:28:21.334Z,998.35
2017-11-05T01:28:47.453Z,998.33
2017-11-05T01:29:13.580Z,998.36
2017-11-05T01:29:39.702Z,998.34
2017-11-05T01:30:05.825Z,998.33
2017-11-05T01:30:31.951Z,998.33
2017-11-05T01:30:58.081Z,998.37
2017-11-05T01:31:24.198Z,998.37
2017-11-05T01:31:50.352Z,998.38
2017-11-05T01:32:16.475Z,998.31
2017-11-05T01:32:42.593Z,998.32
2017-11-05T01:33:08.718Z,998.36
2017-11-05T01:33:34.845Z,998.39
2017-11-05T01:34:00.964Z,998.39
2017-11-05T01:34:27.092Z,998.38
2017-11-05T01:34:53.221Z,998.35
2017-11-05T01:35:19.334Z,998.36
2017-11-05T01:35:45.462Z,998.35
2017-11-05T01:36:11.580Z,998.37
2017-11-05T01:36:37.706Z,998.41
2017-11-05T01:37:03.830Z,998.33
2017-11-05T01:37:29.971Z,998.35
2017-11-05T01:37:56.094Z,998.38
2017-11-05T01:38:22.215Z,998.35
2017-11-05T01:38:48.340Z,998.37
2017-11-05T01:39:14.459Z,998.35
2017-11-05T01:39:40.580Z,998.38
2017-11-05T01:40:06.705Z,998.35
2017-11-05T01:40:32.853Z,998.36
2017-11-05T01:40:58.981Z,998.39
2017-11-05T01:41:25.096Z,998.36
2017-11-05T01:41:51.224Z,998.38
2017-11-05T01:42:17.345Z,998.4
2017-11-05T01:42:43.468Z,998.36
2017-11-05T01:43:09.595Z,998.36
2017-11-05T01:43:35.715Z,998.37
2017-11-05T01:44:01.840Z,998.34
2017-11-05T01:44:27.964Z,998.37
2017-11-05T01:44:54.092Z,998.35
2017-11-05T01:45:20.204Z,998.32
2017-11-05T01:45:46.337Z,998.34
2017-11-05T01:46:12.454Z,998.33
2017-11-05T01:46:38.579Z,998.37
2017-11-05T01:47:04.703Z,998.3
2017-11-05T01:47:30.821Z,998.33
2017-11-05T01:47:56.945Z,998.36
2017-11-05T01:48:23.068Z,998.33
2017-11-05T01:48:49.186Z,998.32
2017-11-05T01:49:15.324Z,998.31
2017-11-05T01:49:41.433Z,998.3
2017-11-05T01:50:07.570Z,998.3
2017-11-05T01:50:33.734Z,998.3
2017-11-05T01:50:59.828Z,998.3
2017-11-05T01:51:25.949Z,998.31
2017-11-05T01:51:52.074Z,998.3
2017-11-05T01:52:18.188Z,998.29
2017-11-05T01:52:44.315Z,998.31
2017-11-05T01:53:10.436Z,998.29
2017-11-05T01:53:36.563Z,998.28
2017-11-05T01:54:02.688Z,998.32
2017-11-05T01:54:28.807Z,998.3
2017-11-05T01:54:54.934Z,998.28
2017-11-05T01:55:21.080Z,998.3
2017-11-05T01:55:47.210Z,998.28
2017-11-05T01:56:13.327Z,998.27
2017-11-05T01:56:39.456Z,998.3
2017-11-05T01:57:05.581Z,998.29
2017-11-05T01:57:31.698Z,998.28
2017-11-05T01:57:57.819Z,998.27
2017-11-05T01:58:23.943Z,998.28
2017-11-05T01:58:50.068Z,998.29
2017-11-05T01:59:16.195Z,998.3
2017-11-05T01:59:42.315Z,998.26
2017-11-05T02:00:08.441Z,998.31
2017-11-05T02:00:34.564Z,998.31
2017-11-05T02:01:00.682Z,998.31
2017-11-05T02:01:26.809Z,998.31
2017-11-05T02:01:52.937Z,998.29
2017-11-05T02:02:19.052Z,998.31
2017-11-05T02:02:45.177Z,998.3
2017-11-05T02:03:11.296Z,998.34
2017-11-05T02:03:37.424Z,998.33
2017-11-05T02:04:03.549Z,998.29
2017-11-05T02:04:29.671Z,998.34
2017-11-05T02:04:55.799Z,998.34
2017-11-05T02:05:21.915Z,998.37
2017-11-05T02:05:48.037Z,998.37
2017-11-05T02:06:14.164Z,998.38
2017-11-05T02:06:40.282Z,998.38
2017-11-05T02:07:06.412Z,998.39
2017-11-05T02:07:32.530Z,998.39
2017-11-05T02:07:58.652Z,998.35
2017-11-05T02:08:24.802Z,998.37
2017-11-05T02:08:50.922Z,998.36
2017-11-05T02:09:17.075Z,998.34
2017-11-05T02:09:43.191Z,998.35
2017-11-05T02:10:09.316Z,998.37
2017-11-05T02:10:35.433Z,998.37
2017-11-05T02:11:01.554Z,998.29
2017-11-05T02:11:27.682Z,998.29
2017-11-05T02:11:53.800Z,998.31
2017-11-05T02:12:19.928Z,998.32
2017-11-05T02:12:46.053Z,998.3
2017-11-05T02:13:12.171Z,998.32
2017-11-05T02:13:38.298Z,998.3
2017-11-05T02:14:04.416Z,998.28
2017-11-05T02:14:30.559Z,998.28
2017-11-05T02:14:56.707Z,998.32
2017-11-05T02:15:22.831Z,998.3
2017-11-05T02:15:48.951Z,998.29
2017-11-05T02:16:15.068Z,998.29
2017-11-05T02:16:41.193Z,998.27
2017-11-05T02:17:07.338Z,998.26
2017-11-05T02:17:33.455Z,998.3
2017-11-05T02:17:59.586Z,998.23
2017-11-05T02:18:25.707Z,998.24
2017-11-05T02:18:51.836Z,998.25
2017-11-05T02:19:17.959Z,998.23
2017-11-05T02:19:44.069Z,998.24
2017-11-05T02:20:10.195Z,998.21
2017-11-05T02:20:36.321Z,998.26
2017-11-05T02:21:02.443Z,998.22
2017-11-05T02:21:28.579Z,998.24
2017-11-05T02:21:54.701Z,998.22
2017-11-05T02:22:20.830Z,998.23
2017-11-05T02:22:46.951Z,998.25
2017-11-05T02:23:13.078Z,998.27
2017-11-05T02:23:39.197Z,998.21
2017-11-05T02:24:05.320Z,998.21
2017-11-05T02:24:31.448Z,998.2
2017-11-05T02:24:57.565Z,998.22
2017-11-05T02:25:23.688Z,998.21
2017-11-05T02:25:49.811Z,998.2
2017-11-05T02:26:15.934Z,998.21
2017-11-05T02:26:42.056Z,998.24
2017-11-05T02:27:08.176Z,998.22
2017-11-05T02:27:34.304Z,998.26
2017-11-05T02:28:00.421Z,998.2
2017-11-05T02:28:26.541Z,998.23
2017-11-05T02:28:52.670Z,998.19
2017-11-05T02:29:18.794Z,998.19
2017-11-05T02:29:44.917Z,998.15
2017-11-05T02:30:11.038Z,998.15
2017-11-05T02:30:37.164Z,998.15
2017-11-05T02:31:03.280Z,998.16
2017-11-05T02:31:29.429Z,998.17
2017-11-05T02:31:55.548Z,998.18
2017-11-05T02:32:21.669Z,998.16
2017-11-05T02:32:47.796Z,998.16
2017-11-05T02:33:13.914Z,998.15
2017-11-05T02:33:40.044Z,998.12
2017-11-05T02:34:06.162Z,998.19
2017-11-05T02:34:32.291Z,998.15
2017-11-05T02:34:58.409Z,998.16
2017-11-05T02:35:24.530Z,998.15
2017-11-05T02:35:50.657Z,998.15
2017-11-05T02:36:16.786Z,998.15
2017-11-05T02:36:42.907Z,998.14
2017-11-05T02:37:09.027Z,998.15
2017-11-05T02:37:35.153Z,998.14
2017-11-05T02:38:01.270Z,998.1
2017-11-05T02:38:27.418Z,998.09
2017-11-05T02:38:53.532Z,998.1
2017-11-05T02:39:19.672Z,998.15
2017-11-05T02:39:45.803Z,998.12
2017-11-05T02:40:11.916Z,998.14
2017-11-05T02:40:38.048Z,998.1
2017-11-05T02:41:04.168Z,998.11
2017-11-05T02:41:30.297Z,998.13
2017-11-05T02:41:56.442Z,998.1
2017-11-05T02:42:22.629Z,998.17
2017-11-05T02:42:48.791Z,998.15
2017-11-05T02:43:14.978Z,998.15
2017-11-05T02:43:41.129Z,998.16
2017-11-05T02:44:07.250Z,998.13
2017-11-05T02:44:33.379Z,998.16
2017-11-05T02:44:59.530Z,998.14
2017-11-05T02:45:25.655Z,998.15
2017-11-05T02:45:51.835Z,998.2
2017-11-05T02:46:17.965Z,998.19
2017-11-05T02:46:44.308Z,998.19
2017-11-05T02:47:10.527Z,998.23
2017-11-05T02:47:36.608Z,998.19
2017-11-05T02:48:02.750Z,998.24
2017-11-05T02:48:28.869Z,998.26
2017-11-05T02:48:54.995Z,998.24
2017-11-05T02:49:21.125Z,998.23
2017-11-05T02:49:47.268Z,998.31
2017-11-05T02:50:13.420Z,998.29
2017-11-05T02:50:39.527Z,998.3
2017-11-05T02:51:05.666Z,998.31
2017-11-05T02:51:31.797Z,998.32
2017-11-05T02:51:57.911Z,998.29
2017-11-05T02:52:24.049Z,998.31
2017-11-05T02:52:50.175Z,998.3
2017-11-05T02:53:16.281Z,998.24
2017-11-05T02:53:42.429Z,998.25
2017-11-05T02:54:08.549Z,998.23
2017-11-05T02:54:34.696Z,998.27
2017-11-05T02:55:00.822Z,998.21
2017-11-05T02:55:26.939Z,998.22
2017-11-05T02:55:53.074Z,998.2
2017-11-05T02:56:19.200Z,998.22
2017-11-05T02:56:45.991Z,998.22
2017-11-05T02:57:12.069Z,998.21
2017-11-05T02:57:38.189Z,998.21
2017-11-05T02:58:04.309Z,998.19
2017-11-05T02:58:30.438Z,998.18
2017-11-05T02:58:56.570Z,998.18
2017-11-05T02:59:22.692Z,998.17
2017-11-05T02:59:48.841Z,998.19
2017-11-05T03:00:14.964Z,998.21
2017-11-05T03:00:41.089Z,998.22
2017-11-05T03:01:07.213Z,998.15
2017-11-05T03:01:33.329Z,998.17
2017-11-05T03:01:59.458Z,998.19
2017-11-05T03:02:25.755Z,998.24
2017-11-05T03:02:51.873Z,998.17
2017-11-05T03:03:18.007Z,998.2
2017-11-05T03:03:44.128Z,998.17
2017-11-05T03:04:10.247Z,998.19
2017-11-05T03:04:36.367Z,998.21
2017-11-05T03:05:02.486Z,998.22
2017-11-05T03:05:28.621Z,998.19
2017-11-05T03:05:54.736Z,998.18
2017-11-05T03:06:20.866Z,998.2
2017-11-05T03:06:46.981Z,998.22
2017-11-05T03:07:13.098Z,998.22
2017-11-05T03:07:39.220Z,998.25
2017-11-05T03:08:05.357Z,998.25
2017-11-05T03:08:31.465Z,998.23
2017-11-05T03:08:57.603Z,998.24
2017-11-05T03:09:23.721Z,998.26
2017-11-05T03:09:49.838Z,998.27
2017-11-05T03:10:15.958Z,998.28
2017-11-05T03:10:42.079Z,998.3
2017-11-05T03:11:08.202Z,998.29
2017-11-05T03:11:34.334Z,998.32
2017-11-05T03:12:00.447Z,998.31
2017-11-05T03:12:26.573Z,998.32
2017-11-05T03:12:52.722Z,998.31
2017-11-05T03:13:18.839Z,998.34
2017-11-05T03:13:44.969Z,998.33
2017-11-05T03:14:11.367Z,998.33
2017-11-05T03:14:37.527Z,998.3
2017-11-05T03:15:03.702Z,998.32
2017-11-05T03:15:29.841Z,998.31
2017-11-05T03:15:55.959Z,998.28
2017-11-05T03:16:22.083Z,998.3
2017-11-05T03:16:48.202Z,998.33
2017-11-05T03:17:14.324Z,998.32
2017-11-05T03:17:40.451Z,998.28
2017-11-05T03:18:06.656Z,998.29
2017-11-05T03:18:32.773Z,998.31
2017-11-05T03:18:58.893Z,998.37
2017-11-05T03:19:25.022Z,998.35
2017-11-05T03:19:51.148Z,998.38
2017-11-05T03:20:17.268Z,998.31
2017-11-05T03:20:43.388Z,998.38
2017-11-05T03:21:09.516Z,998.33
2017-11-05T03:21:35.658Z,998.36
2017-11-05T03:22:01.779Z,998.31
2017-11-05T03:22:27.896Z,998.33
2017-11-05T03:22:54.024Z,998.33
2017-11-05T03:23:20.150Z,998.31
2017-11-05T03:23:46.270Z,998.31
2017-11-05T03:24:12.386Z,998.33
2017-11-05T03:24:38.506Z,998.3
2017-11-05T03:25:04.628Z,998.29
2017-11-05T03:25:30.758Z,998.29
2017-11-05T03:25:56.880Z,998.29
2017-11-05T03:26:22.999Z,998.27
2017-11-05T03:26:49.126Z,998.23
2017-11-05T03:27:15.247Z,998.27
2017-11-05T03:27:41.363Z,998.3
2017-11-05T03:28:07.493Z,998.27
2017-11-05T03:28:33.619Z,998.27
2017-11-05T03:28:59.750Z,998.27
2017-11-05T03:29:25.868Z,998.3
2017-11-05T03:29:51.990Z,998.29
2017-11-05T03:30:18.113Z,998.28
2017-11-05T03:30:44.230Z,998.29
2017-11-05T03:31:10.384Z,998.29
2017-11-05T03:31:36.522Z,998.28
2017-11-05T03:32:02.774Z,998.32
2017-11-05T03:32:28.895Z,998.3
2017-11-05T03:32:55.020Z,998.28
2017-11-05T03:33:21.136Z,998.28
2017-11-05T03:33:47.265Z,998.27
2017-11-05T03:34:13.393Z,998.28
2017-11-05T03:34:39.532Z,998.28
2017-11-05T03:35:05.659Z,998.31
2017-11-05T03:35:31.777Z,998.33
2017-11-05T03:35:57.900Z,998.31
2017-11-05T03:36:24.021Z,998.3
2017-11-05T03:36:50.149Z,998.38
2017-11-05T03:37:16.274Z,998.35
2017-11-05T03:37:42.392Z,998.37
2017-11-05T03:38:08.520Z,998.37
2017-11-05T03:38:34.640Z,998.37
2017-11-05T03:39:00.768Z,998.41
2017-11-05T03:39:26.885Z,998.37
2017-11-05T03:39:53.006Z,998.36
2017-11-05T03:40:19.135Z,998.41
2017-11-05T03:40:45.260Z,998.38
2017-11-05T03:41:11.378Z,998.36
2017-11-05T03:41:37.501Z,998.38
2017-11-05T03:42:03.640Z,998.39
2017-11-05T03:42:29.744Z,998.35
2017-11-05T03:42:55.869Z,998.36
2017-11-05T03:43:21.996Z,998.38
2017-11-05T03:43:48.115Z,998.36
2017-11-05T03:44:14.241Z,998.31
2017-11-05T03:44:40.360Z,998.35
2017-11-05T03:45:06.480Z,998.36
2017-11-05T03:45:32.608Z,998.36
2017-11-05T03:45:58.726Z,998.34
2017-11-05T03:46:24.860Z,998.36
2017-11-05T03:46:50.984Z,998.34
2017-11-05T03:47:17.101Z,998.35
2017-11-05T03:47:43.225Z,998.34
2017-11-05T03:48:09.351Z,998.31
2017-11-05T03:48:35.477Z,998.29
2017-11-05T03:49:01.596Z,998.32
2017-11-05T03:49:27.717Z,998.35
2017-11-05T03:49:53.839Z,998.34
2017-11-05T03:50:19.968Z,998.33
2017-11-05T03:50:46.081Z,998.34
2017-11-05T03:51:12.203Z,998.35
2017-11-05T03:51:38.331Z,998.36
2017-11-05T03:52:04.445Z,998.38
2017-11-05T03:52:30.570Z,998.39
2017-11-05T03:52:56.688Z,998.4
2017-11-05T03:53:22.841Z,998.36
2017-11-05T03:53:48.967Z,998.38
2017-11-05T03:54:15.082Z,998.41
2017-11-05T03:54:41.203Z,998.4
2017-11-05T03:55:07.333Z,998.4
2017-11-05T03:55:33.460Z,998.47
2017-11-05T03:55:59.578Z,998.43
2017-11-05T03:56:25.694Z,998.46
2017-11-05T03:56:51.818Z,998.47
2017-11-05T03:57:17.947Z,998.48
2017-11-05T03:57:44.066Z,998.44
2017-11-05T03:58:10.198Z,998.46
2017-11-05T03:58:36.312Z,998.43
2017-11-05T03:59:02.431Z,998.45
2017-11-05T03:59:28.558Z,998.45
2017-11-05T03:59:54.676Z,998.45
2017-11-05T04:00:20.802Z,998.41
2017-11-05T04:00:46.924Z,998.41
2017-11-05T04:01:13.052Z,998.41
2017-11-05T04:01:39.188Z,998.41
2017-11-05T04:02:05.314Z,998.41
2017-11-05T04:02:31.432Z,998.39
2017-11-05T04:02:57.558Z,998.38
2017-11-05T04:03:23.683Z,998.39
2017-11-05T04:03:49.800Z,998.36
2017-11-05T04:04:15.930Z,998.36
2017-11-05T04:04:42.047Z,998.38
2017-11-05T04:05:08.168Z,998.34
2017-11-05T04:05:34.296Z,998.37
2017-11-05T04:06:00.411Z,998.36
2017-11-05T04:06:26.539Z,998.39
2017-11-05T04:06:52.664Z,998.37
2017-11-05T04:07:18.805Z,998.32
2017-11-05T04:07:44.932Z,998.37
2017-11-05T04:08:11.055Z,998.37
2017-11-05T04:08:37.174Z,998.34
2017-11-05T04:09:03.295Z,998.34
2017-11-05T04:09:29.422Z,998.36
2017-11-05T04:09:55.541Z,998.35
2017-11-05T04:10:21.660Z,998.33
2017-11-05T04:10:47.787Z,998.33
2017-11-05T04:11:13.909Z,998.31
2017-11-05T04:11:40.021Z,998.33
2017-11-05T04:12:06.142Z,998.33
2017-11-05T04:12:32.296Z,998.36
2017-11-05T04:12:58.417Z,998.37
2017-11-05T04:13:24.540Z,998.34
2017-11-05T04:13:50.661Z,998.39
2017-11-05T04:14:16.812Z,998.33
2017-11-05T04:14:42.916Z,998.35
2017-11-05T04:15:09.037Z,998.34
2017-11-05T04:15:35.149Z,998.32
2017-11-05T04:16:01.270Z,998.31
2017-11-05T04:16:27.397Z,998.29
2017-11-05T04:16:53.520Z,998.29
2017-11-05T04:17:19.644Z,998.31
2017-11-05T04:17:45.772Z,998.31
2017-11-05T04:18:11.897Z,998.28
2017-11-05T04:18:38.014Z,998.3
2017-11-05T04:19:04.133Z,998.32
2017-11-05T04:19:30.262Z,998.3
2017-11-05T04:19:56.379Z,998.29
2017-11-05T04:20:22.506Z,998.31
2017-11-05T04:20:48.652Z,998.29
2017-11-05T04:21:14.772Z,998.28
2017-11-05T04:21:40.890Z,998.26
2017-11-05T04:22:07.039Z,998.27
2017-11-05T04:22:33.160Z,998.23
2017-11-05T04:22:59.283Z,998.23
2017-11-05T04:23:25.405Z,998.24
2017-11-05T04:23:51.524Z,998.25
2017-11-05T04:24:17.652Z,998.23
2017-11-05T04:24:43.769Z,998.22
2017-11-05T04:25:09.888Z,998.23
2017-11-05T04:25:36.016Z,998.2
2017-11-05T04:26:02.134Z,998.21
2017-11-05T04:26:28.262Z,998.23
2017-11-05T04:26:54.380Z,998.18
2017-11-05T04:27:20.505Z,998.2
2017-11-05T04:27:46.646Z,998.19
2017-11-05T04:28:12.772Z,998.21
2017-11-05T04:28:38.894Z,998.2
2017-11-05T04:29:05.022Z,998.21
2017-11-05T04:29:31.148Z,998.19
2017-11-05T04:29:57.265Z,998.21
2017-11-05T04:30:23.395Z,998.23
2017-11-05T04:30:49.526Z,998.22
2017-11-05T04:31:15.639Z,998.22
2017-11-05T04:31:41.761Z,998.2
2017-11-05T04:32:07.893Z,998.19
2017-11-05T04:32:34.009Z,998.22
2017-11-05T04:33:00.132Z,998.23
2017-11-05T04:33:26.259Z,998.23
2017-11-05T04:33:52.382Z,998.24
2017-11-05T04:34:18.501Z,998.24
2017-11-05T04:34:44.618Z,998.24
2017-11-05T04:35:10.739Z,998.21
2017-11-05T04:35:36.860Z,998.22
2017-11-05T04:36:02.986Z,998.22
2017-11-05T04:36:29.102Z,998.25
2017-11-05T04:36:55.232Z,998.26
2017-11-05T04:37:21.354Z,998.25
2017-11-05T04:37:47.478Z,998.24
2017-11-05T04:38:13.599Z,998.24
2017-11-05T04:38:39.743Z,998.24
2017-11-05T04:39:05.878Z,998.21
2017-11-05T04:39:32.013Z,998.23
2017-11-05T04:39:58.139Z,998.26
2017-11-05T04:40:24.259Z,998.22
2017-11-05T04:40:50.384Z,998.22
2017-11-05T04:41:16.501Z,998.26
2017-11-05T04:41:42.624Z,998.24
2017-11-05T04:42:08.747Z,998.24
2017-11-05T04:42:34.866Z,998.27
2017-11-05T04:43:00.993Z,998.27
2017-11-05T04:43:27.118Z,998.29
2017-11-05T04:43:53.235Z,998.27
2017-11-05T04:44:19.365Z,998.26
2017-11-05T04:44:45.485Z,998.27
2017-11-05T04:45:11.602Z,998.22
2017-11-05T04:45:37.728Z,998.26
2017-11-05T04:46:03.867Z,998.25
2017-11-05T04:46:29.994Z,998.25
2017-11-05T04:46:56.119Z,998.25
2017-11-05T04:47:22.240Z,998.28
2017-11-05T04:47:48.360Z,998.27
2017-11-05T04:48:14.487Z,998.24
2017-11-05T04:48:40.616Z,998.27
2017-11-05T04:49:06.735Z,998.24
2017-11-05T04:49:32.853Z,998.25
2017-11-05T04:49:58.982Z,998.28
2017-11-05T04:50:25.099Z,998.28
2017-11-05T04:50:51.227Z,998.26
2017-11-05T04:51:17.346Z,998.25
2017-11-05T04:51:43.481Z,998.28
2017-11-05T04:52:09.597Z,998.3
2017-11-05T04:52:35.721Z,998.29
2017-11-05T04:53:01.843Z,998.25
2017-11-05T04:53:27.961Z,998.28
2017-11-05T04:53:54.087Z,998.3
2017-11-05T04:54:20.209Z,998.3
2017-11-05T04:54:46.333Z,998.27
2017-11-05T04:55:12.450Z,998.27
2017-11-05T04:55:38.571Z,998.27
2017-11-05T04:56:04.693Z,998.26
2017-11-05T04:56:30.831Z,998.27
2017-11-05T04:56:56.965Z,998.23
2017-11-05T04:57:23.084Z,998.24
2017-11-05T04:57:49.229Z,998.25
2017-11-05T04:58:15.359Z,998.24
2017-11-05T04:58:41.530Z,998.24
2017-11-05T04:59:07.725Z,998.23
2017-11-05T04:59:33.784Z,998.22
2017-11-05T04:59:59.942Z,998.2
2017-11-05T05:00:26.146Z,998.19
2017-11-05T05:00:52.358Z,998.21
2017-11-05T05:01:18.523Z,998.19
2017-11-05T05:01:44.731Z,998.17
2017-11-05T05:02:10.916Z,998.19
2017-11-05T05:02:37.088Z,998.17
2017-11-05T05:03:03.258Z,998.19
2017-11-05T05:03:29.398Z,998.19
2017-11-05T05:03:55.595Z,998.21
2017-11-05T05:04:21.737Z,998.17
2017-11-05T05:04:47.857Z,998.19
2017-11-05T05:05:14.150Z,998.2
2017-11-05T05:05:40.269Z,998.2
2017-11-05T05:06:06.518Z,998.21
2017-11-05T05:06:32.590Z,998.19
2017-11-05T05:06:58.754Z,998.22
2017-11-05T05:07:24.927Z,998.19
2017-11-05T05:07:51.074Z,998.2
2017-11-05T05:08:17.261Z,998.24
2017-11-05T05:08:43.393Z,998.23
2017-11-05T05:09:09.562Z,998.23
2017-11-05T05:09:35.752Z,998.2
2017-11-05T05:10:01.974Z,998.2
2017-11-05T05:10:28.189Z,998.22
2017-11-05T05:10:54.373Z,998.22
2017-11-05T05:11:20.577Z,998.21
2017-11-05T05:11:46.726Z,998.18
2017-11-05T05:12:12.911Z,998.22
2017-11-05T05:12:39.030Z,998.2
2017-11-05T05:13:05.254Z,998.16
2017-11-05T05:13:31.471Z,998.15
2017-11-05T05:13:57.653Z,998.14
2017-11-05T05:14:23.879Z,998.19
2017-11-05T05:14:50.052Z,998.18
2017-11-05T05:15:16.313Z,998.2
2017-11-05T05:15:42.475Z,998.2
2017-11-05T05:16:08.646Z,998.23
2017-11-05T05:16:34.825Z,998.19
2017-11-05T05:17:01.068Z,998.18
2017-11-05T05:17:27.179Z,998.21
2017-11-05T05:17:53.340Z,998.15
2017-11-05T05:18:19.496Z,998.18
2017-11-05T05:18:45.731Z,998.18
2017-11-05T05:19:11.909Z,998.21
2017-11-05T05:19:38.147Z,998.21
2017-11-05T05:20:04.315Z,998.21
2017-11-05T05:20:30.411Z,998.24
2017-11-05T05:20:56.683Z,998.21
2017-11-05T05:21:22.765Z,998.23
2017-11-05T05:21:48.903Z,998.25
2017-11-05T05:22:15.065Z,998.24
2017-11-05T05:22:41.251Z,998.24
2017-11-05T05:23:07.446Z,998.26
2017-11-05T05:23:33.517Z,998.25
2017-11-05T05:23:59.643Z,998.25
2017-11-05T05:24:25.800Z,998.31
2017-11-05T05:24:52.003Z,998.29
2017-11-05T05:25:18.175Z,998.3
2017-11-05T05:25:44.336Z,998.3
2017-11-05T05:26:10.457Z,998.3
2017-11-05T05:26:36.688Z,998.3
2017-11-05T05:27:02.782Z,998.32
2017-11-05T05:27:28.885Z,998.34